createdAt,value
2018-02-25T00:00:51.150Z,1024.26
2018-02-25T00:01:51.158Z,1024.27
2018-02-25T00:02:51.176Z,1024.27
2018-02-25T00:03:51.175Z,1024.28
2018-02-25T00:04:51.177Z,1024.31
2018-02-25T00:05:51.192Z,1024.29
2018-02-25T00:06:51.198Z,1024.23
2018-02-25T00:07:51.207Z,1024.20
2018-02-25T00:08:51.210Z,1024.22
2018-02-25T00:09:51.218Z,1024.19
2018-02-25T00:10:51.224Z,1024.26
2018-02-25T00:11:51.230Z,1024.24
2018-02-25T00:13:51.331Z,1024.29
2018-02-25T00:14:51.866Z,1024.21
2018-02-25T00:15:51.263Z,1024.23
2018-02-25T00:16:51.272Z,1024.20
2018-02-25T00:17:51.275Z,1024.15
2018-02-25T00:18:51.284Z,1024.18
2018-02-25T00:19:51.293Z,1024.15
2018-02-25T00:20:51.299Z,1024.18
2018-02-25T00:21:51.309Z,1024.14
2018-02-25T00:22:51.313Z,1024.19
2018-02-25T00:23:51.322Z,1024.21
2018-02-25T00:24:51.348Z,1024.15
2018-02-25T00:25:51.335Z,1024.15
2018-02-25T00:26:51.346Z,1024.13
2018-02-25T00:27:51.351Z,1024.10
2018-02-25T00:28:51.357Z,1024.14
2018-02-25T00:29:51.379Z,1024.16
2018-02-25T00:30:51.373Z,1024.15
2018-02-25T00:31:51.381Z,1024.18
2018-02-25T00:32:51.390Z,1024.19
2018-02-25T00:33:51.397Z,1024.18
2018-02-25T00:34:51.407Z,1024.20
2018-02-25T00:35:51.411Z,1024.17
2018-02-25T00:36:51.434Z,1024.14
2018-02-25T00:37:51.426Z,1024.22
2018-02-25T00:38:51.428Z,1024.22
2018-02-25T00:39:51.440Z,1024.26
2018-02-25T00:40:51.453Z,1024.20
2018-02-25T00:41:51.494Z,1024.24
2018-02-25T00:42:51.562Z,1024.18
2018-02-25T00:43:51.562Z,1024.19
2018-02-25T00:44:51.522Z,1024.22
2018-02-25T00:45:51.484Z,1024.19
2018-02-25T00:46:51.487Z,1024.30
2018-02-25T00:47:51.496Z,1024.27
2018-02-25T00:48:51.505Z,1024.25
2018-02-25T00:49:51.520Z,1024.19
2018-02-25T00:50:51.521Z,1024.28
2018-02-25T00:51:51.540Z,1024.28
2018-02-25T00:52:51.535Z,1024.25
2018-02-25T00:53:51.544Z,1024.28
2018-02-25T00:54:51.557Z,1024.34
2018-02-25T00:55:51.553Z,1024.28
2018-02-25T00:56:51.561Z,1024.30
2018-02-25T00:57:51.568Z,1024.25
2018-02-25T00:58:51.586Z,1024.27
2018-02-25T00:59:51.584Z,1024.23
2018-02-25T01:00:51.592Z,1024.23
2018-02-25T01:01:51.603Z,1024.22
2018-02-25T01:02:51.609Z,1024.20
2018-02-25T01:03:51.612Z,1024.16
2018-02-25T01:04:51.621Z,1024.16
2018-02-25T01:05:51.641Z,1024.20
2018-02-25T01:06:51.650Z,1024.23
2018-02-25T01:07:51.643Z,1024.24
2018-02-25T01:08:51.661Z,1024.27
2018-02-25T01:09:51.658Z,1024.28
2018-02-25T01:10:51.680Z,1024.28
2018-02-25T01:11:51.672Z,1024.27
2018-02-25T01:12:51.895Z,1024.27
2018-02-25T01:13:51.685Z,1024.28
2018-02-25T01:14:51.692Z,1024.26
2018-02-25T01:15:51.701Z,1024.30
2018-02-25T01:16:51.708Z,1024.34
2018-02-25T01:17:51.716Z,1024.31
2018-02-25T01:18:51.723Z,1024.31
2018-02-25T01:19:51.732Z,1024.35
2018-02-25T01:20:51.739Z,1024.36
2018-02-25T01:21:51.749Z,1024.35
2018-02-25T01:22:51.751Z,1024.36
2018-02-25T01:23:51.760Z,1024.32
2018-02-25T01:24:51.757Z,1024.33
2018-02-25T01:25:51.767Z,1024.40
2018-02-25T01:26:51.773Z,1024.37
2018-02-25T01:27:51.780Z,1024.38
2018-02-25T01:28:51.788Z,1024.42
2018-02-25T01:29:51.794Z,1024.48
2018-02-25T01:30:51.802Z,1024.48
2018-02-25T01:31:51.808Z,1024.49
2018-02-25T01:32:51.817Z,1024.49
2018-02-25T01:33:51.822Z,1024.47
2018-02-25T01:34:51.830Z,1024.43
2018-02-25T01:35:51.837Z,1024.49
2018-02-25T01:36:51.844Z,1024.48
2018-02-25T01:37:51.851Z,1024.48
2018-02-25T01:38:51.858Z,1024.48
2018-02-25T01:39:51.867Z,1024.48
2018-02-25T01:40:51.878Z,1024.48
2018-02-25T01:41:51.883Z,1024.53
2018-02-25T01:42:52.038Z,1024.53
2018-02-25T01:43:52.057Z,1024.50
2018-02-25T01:44:51.901Z,1024.49
2018-02-25T01:45:51.909Z,1024.51
2018-02-25T01:46:51.916Z,1024.46
2018-02-25T01:47:51.923Z,1024.47
2018-02-25T01:48:51.929Z,1024.48
2018-02-25T01:49:51.936Z,1024.45
2018-02-25T01:50:51.942Z,1024.42
2018-02-25T01:51:51.950Z,1024.38
2018-02-25T01:52:51.958Z,1024.41
2018-02-25T01:53:51.969Z,1024.41
2018-02-25T01:54:51.972Z,1024.43
2018-02-25T01:55:51.981Z,1024.39
2018-02-25T01:56:51.992Z,1024.38
2018-02-25T01:57:51.994Z,1024.38
2018-02-25T01:58:51.998Z,1024.38
2018-02-25T01:59:52.006Z,1024.43
2018-02-25T02:00:52.014Z,1024.40
2018-02-25T02:01:52.021Z,1024.40
2018-02-25T02:02:52.028Z,1024.38
2018-02-25T02:03:52.036Z,1024.38
2018-02-25T02:04:52.044Z,1024.37
2018-02-25T02:05:52.051Z,1024.40
2018-02-25T02:06:52.059Z,1024.37
2018-02-25T02:07:52.065Z,1024.34
2018-02-25T02:08:52.074Z,1024.32
2018-02-25T02:09:52.091Z,1024.35
2018-02-25T02:10:52.083Z,1024.31
2018-02-25T02:11:52.091Z,1024.34
2018-02-25T02:13:52.575Z,1024.32
2018-02-25T02:14:52.113Z,1024.32
2018-02-25T02:15:52.178Z,1024.31
2018-02-25T02:16:52.127Z,1024.29
2018-02-25T02:17:52.131Z,1024.30
2018-02-25T02:18:52.148Z,1024.35
2018-02-25T02:19:52.147Z,1024.32
2018-02-25T02:20:52.160Z,1024.30
2018-02-25T02:21:52.161Z,1024.32
2018-02-25T02:22:52.169Z,1024.31
2018-02-25T02:23:52.175Z,1024.31
2018-02-25T02:24:52.183Z,1024.30
2018-02-25T02:25:52.189Z,1024.32
2018-02-25T02:26:52.196Z,1024.35
2018-02-25T02:27:52.203Z,1024.32
2018-02-25T02:28:52.211Z,1024.28
2018-02-25T02:29:52.225Z,1024.28
2018-02-25T02:30:52.226Z,1024.28
2018-02-25T02:31:52.232Z,1024.34
2018-02-25T02:32:52.239Z,1024.31
2018-02-25T02:33:52.252Z,1024.30
2018-02-25T02:34:52.254Z,1024.33
2018-02-25T02:35:52.262Z,1024.34
2018-02-25T02:36:52.270Z,1024.33
2018-02-25T02:37:52.278Z,1024.26
2018-02-25T02:38:52.278Z,1024.29
2018-02-25T02:39:52.300Z,1024.30
2018-02-25T02:40:52.300Z,1024.30
2018-02-25T02:41:52.303Z,1024.35
2018-02-25T02:42:52.309Z,1024.33
2018-02-25T02:43:52.419Z,1024.33
2018-02-25T02:44:52.326Z,1024.30
2018-02-25T02:45:52.330Z,1024.36
2018-02-25T02:46:52.340Z,1024.33
2018-02-25T02:47:52.347Z,1024.38
2018-02-25T02:48:52.453Z,1024.33
2018-02-25T02:49:52.360Z,1024.30
2018-02-25T02:50:52.370Z,1024.34
2018-02-25T02:51:52.388Z,1024.30
2018-02-25T02:52:52.381Z,1024.32
2018-02-25T02:53:52.483Z,1024.38
2018-02-25T02:54:52.399Z,1024.43
2018-02-25T02:55:52.407Z,1024.44
2018-02-25T02:56:52.407Z,1024.47
2018-02-25T02:57:52.413Z,1024.45
2018-02-25T02:58:52.420Z,1024.46
2018-02-25T02:59:52.433Z,1024.49
2018-02-25T03:00:52.436Z,1024.51
2018-02-25T03:01:52.454Z,1024.51
2018-02-25T03:02:52.446Z,1024.57
2018-02-25T03:03:52.458Z,1024.55
2018-02-25T03:04:52.462Z,1024.58
2018-02-25T03:05:52.467Z,1024.56
2018-02-25T03:06:52.479Z,1024.62
2018-02-25T03:07:52.482Z,1024.65
2018-02-25T03:08:52.497Z,1024.61
2018-02-25T03:09:52.496Z,1024.60
2018-02-25T03:10:52.504Z,1024.63
2018-02-25T03:11:52.514Z,1024.66
2018-02-25T03:12:52.519Z,1024.64
2018-02-25T03:13:52.525Z,1024.65
2018-02-25T03:14:52.570Z,1024.66
2018-02-25T03:15:52.542Z,1024.65
2018-02-25T03:16:52.668Z,1024.68
2018-02-25T03:17:52.553Z,1024.70
2018-02-25T03:18:52.559Z,1024.64
2018-02-25T03:19:52.565Z,1024.70
2018-02-25T03:20:52.573Z,1024.73
2018-02-25T03:21:52.587Z,1024.73
2018-02-25T03:22:52.586Z,1024.68
2018-02-25T03:23:52.594Z,1024.75
2018-02-25T03:24:52.599Z,1024.74
2018-02-25T03:25:52.607Z,1024.72
2018-02-25T03:26:52.633Z,1024.75
2018-02-25T03:27:52.621Z,1024.75
2018-02-25T03:28:52.629Z,1024.76
2018-02-25T03:29:52.636Z,1024.84
2018-02-25T03:30:52.643Z,1024.83
2018-02-25T03:31:52.649Z,1024.84
2018-02-25T03:32:52.657Z,1024.88
2018-02-25T03:33:52.667Z,1024.91
2018-02-25T03:34:52.671Z,1024.86
2018-02-25T03:35:52.676Z,1024.89
2018-02-25T03:36:52.684Z,1024.88
2018-02-25T03:37:52.696Z,1024.89
2018-02-25T03:38:52.696Z,1024.89
2018-02-25T03:39:52.706Z,1024.86
2018-02-25T03:40:52.716Z,1024.89
2018-02-25T03:41:52.719Z,1024.88
2018-02-25T03:42:52.780Z,1024.92
2018-02-25T03:43:52.730Z,1024.87
2018-02-25T03:44:52.738Z,1024.92
2018-02-25T03:45:52.747Z,1024.88
2018-02-25T03:46:52.751Z,1024.90
2018-02-25T03:47:52.781Z,1024.91
2018-02-25T03:48:52.769Z,1024.90
2018-02-25T03:49:52.774Z,1024.89
2018-02-25T03:50:53.016Z,1024.91
2018-02-25T03:51:53.060Z,1024.89
2018-02-25T03:52:52.793Z,1024.92
2018-02-25T03:53:52.799Z,1024.96
2018-02-25T03:54:52.814Z,1024.96
2018-02-25T03:55:52.816Z,1024.97
2018-02-25T03:56:52.843Z,1024.96
2018-02-25T03:57:52.826Z,1024.97
2018-02-25T03:58:52.836Z,1024.96
2018-02-25T03:59:52.842Z,1025.02
2018-02-25T04:00:52.854Z,1025.01
2018-02-25T04:01:52.858Z,1025.01
2018-02-25T04:02:52.875Z,1025.04
2018-02-25T04:03:52.870Z,1025.09
2018-02-25T04:04:52.876Z,1025.09
2018-02-25T04:05:52.884Z,1025.10
2018-02-25T04:06:52.895Z,1025.09
2018-02-25T04:07:52.896Z,1025.11
2018-02-25T04:08:52.912Z,1025.16
2018-02-25T04:09:52.910Z,1025.17
2018-02-25T04:10:52.923Z,1025.19
2018-02-25T04:11:52.929Z,1025.20
2018-02-25T04:12:52.934Z,1025.20
2018-02-25T04:13:52.941Z,1025.14
2018-02-25T04:14:52.949Z,1025.21
2018-02-25T04:15:52.961Z,1025.20
2018-02-25T04:16:52.962Z,1025.18
2018-02-25T04:17:53.012Z,1025.17
2018-02-25T04:18:52.973Z,1025.20
2018-02-25T04:19:52.981Z,1025.17
2018-02-25T04:20:52.990Z,1025.24
2018-02-25T04:21:53.328Z,1025.23
2018-02-25T04:22:53.004Z,1025.24
2018-02-25T04:23:53.009Z,1025.25
2018-02-25T04:24:53.021Z,1025.29
2018-02-25T04:25:53.026Z,1025.28
2018-02-25T04:26:53.034Z,1025.27
2018-02-25T04:27:53.039Z,1025.24
2018-02-25T04:28:53.048Z,1025.23
2018-02-25T04:29:53.060Z,1025.20
2018-02-25T04:30:53.056Z,1025.20
2018-02-25T04:31:53.071Z,1025.25
2018-02-25T04:32:53.074Z,1025.25
2018-02-25T04:33:53.076Z,1025.24
2018-02-25T04:34:53.082Z,1025.24
2018-02-25T04:35:53.095Z,1025.21
2018-02-25T04:36:53.098Z,1025.19
2018-02-25T04:37:53.107Z,1025.15
2018-02-25T04:38:53.109Z,1025.16
2018-02-25T04:39:53.118Z,1025.17
2018-02-25T04:40:53.132Z,1025.20
2018-02-25T04:41:53.137Z,1025.16
2018-02-25T04:42:53.153Z,1025.18
2018-02-25T04:43:53.147Z,1025.12
2018-02-25T04:44:53.152Z,1025.13
2018-02-25T04:45:53.160Z,1025.17
2018-02-25T04:46:53.163Z,1025.12
2018-02-25T04:47:53.171Z,1025.14
2018-02-25T04:48:53.177Z,1025.11
2018-02-25T04:49:53.189Z,1025.11
2018-02-25T04:51:53.460Z,1025.11
2018-02-25T04:52:53.209Z,1025.09
2018-02-25T04:53:53.212Z,1025.09
2018-02-25T04:54:53.216Z,1025.10
2018-02-25T04:55:53.224Z,1025.04
2018-02-25T04:56:53.231Z,1025.06
2018-02-25T04:57:53.241Z,1025.06
2018-02-25T04:58:53.246Z,1025.07
2018-02-25T04:59:53.252Z,1025.05
2018-02-25T05:00:53.261Z,1025.03
2018-02-25T05:01:53.266Z,1025.03
2018-02-25T05:02:53.272Z,1025.06
2018-02-25T05:03:53.279Z,1025.07
2018-02-25T05:04:53.284Z,1025.07
2018-02-25T05:05:53.291Z,1025.06
2018-02-25T05:06:53.303Z,1025.03
2018-02-25T05:07:53.304Z,1025.05
2018-02-25T05:08:53.317Z,1025.03
2018-02-25T05:09:53.325Z,1025.04
2018-02-25T05:10:53.332Z,1025.04
2018-02-25T05:11:53.332Z,1025.01
2018-02-25T05:12:53.644Z,1025.03
2018-02-25T05:13:53.345Z,1025.05
2018-02-25T05:14:53.354Z,1025.08
2018-02-25T05:15:53.359Z,1025.08
2018-02-25T05:16:53.363Z,1025.10
2018-02-25T05:17:53.385Z,1025.11
2018-02-25T05:18:53.378Z,1025.09
2018-02-25T05:19:53.386Z,1025.07
2018-02-25T05:20:53.395Z,1025.13
2018-02-25T05:21:53.397Z,1025.13
2018-02-25T05:22:53.406Z,1025.11
2018-02-25T05:23:53.416Z,1025.11
2018-02-25T05:24:53.422Z,1025.12
2018-02-25T05:25:53.429Z,1025.14
2018-02-25T05:26:54.137Z,1025.12
2018-02-25T05:27:53.531Z,1025.16
2018-02-25T05:28:53.445Z,1025.11
2018-02-25T05:29:53.451Z,1025.12
2018-02-25T05:30:53.461Z,1025.14
2018-02-25T05:31:53.470Z,1025.16
2018-02-25T05:32:53.486Z,1025.10
2018-02-25T05:33:53.483Z,1025.12
2018-02-25T05:34:53.484Z,1025.15
2018-02-25T05:35:53.495Z,1025.12
2018-02-25T05:36:53.500Z,1025.16
2018-02-25T05:37:53.505Z,1025.13
2018-02-25T05:38:53.512Z,1025.13
2018-02-25T05:39:53.519Z,1025.15
2018-02-25T05:40:53.524Z,1025.15
2018-02-25T05:41:53.530Z,1025.14
2018-02-25T05:42:53.543Z,1025.14
2018-02-25T05:43:53.549Z,1025.12
2018-02-25T05:44:53.550Z,1025.14
2018-02-25T05:45:53.554Z,1025.11
2018-02-25T05:46:53.566Z,1025.11
2018-02-25T05:47:53.572Z,1025.14
2018-02-25T05:48:53.576Z,1025.16
2018-02-25T05:49:53.586Z,1025.16
2018-02-25T05:50:53.588Z,1025.18
2018-02-25T05:51:53.598Z,1025.19
2018-02-25T05:52:53.604Z,1025.23
2018-02-25T05:53:53.618Z,1025.20
2018-02-25T05:54:53.625Z,1025.23
2018-02-25T05:55:53.622Z,1025.23
2018-02-25T05:56:53.630Z,1025.25
2018-02-25T05:57:53.798Z,1025.28
2018-02-25T05:58:53.896Z,1025.24
2018-02-25T05:59:53.721Z,1025.25
2018-02-25T06:00:53.659Z,1025.29
2018-02-25T06:01:53.662Z,1025.31
2018-02-25T06:02:53.671Z,1025.24
2018-02-25T06:03:53.675Z,1025.29
2018-02-25T06:04:53.680Z,1025.35
2018-02-25T06:05:53.688Z,1025.33
2018-02-25T06:06:53.698Z,1025.35
2018-02-25T06:07:53.707Z,1025.36
2018-02-25T06:08:53.717Z,1025.41
2018-02-25T06:09:53.714Z,1025.39
2018-02-25T06:10:53.720Z,1025.40
2018-02-25T06:11:53.728Z,1025.39
2018-02-25T06:12:53.735Z,1025.39
2018-02-25T06:13:53.739Z,1025.36
2018-02-25T06:14:53.746Z,1025.40
2018-02-25T06:15:53.757Z,1025.41
2018-02-25T06:16:53.764Z,1025.40
2018-02-25T06:17:53.767Z,1025.43
2018-02-25T06:18:53.772Z,1025.46
2018-02-25T06:19:53.783Z,1025.47
2018-02-25T06:20:53.788Z,1025.48
2018-02-25T06:21:53.794Z,1025.48
2018-02-25T06:22:53.798Z,1025.47
2018-02-25T06:23:53.807Z,1025.47
2018-02-25T06:24:53.822Z,1025.48
2018-02-25T06:25:53.923Z,1025.47
2018-02-25T06:28:53.887Z,1025.48
2018-02-25T06:29:53.845Z,1025.50
2018-02-25T06:30:53.849Z,1025.53
2018-02-25T06:31:53.858Z,1025.53
2018-02-25T06:32:53.863Z,1025.51
2018-02-25T06:33:53.871Z,1025.55
2018-02-25T06:34:53.877Z,1025.54
2018-02-25T06:35:53.899Z,1025.51
2018-02-25T06:36:53.891Z,1025.53
2018-02-25T06:37:53.899Z,1025.53
2018-02-25T06:38:53.908Z,1025.51
2018-02-25T06:39:53.912Z,1025.53
2018-02-25T06:40:53.921Z,1025.55
2018-02-25T06:41:53.923Z,1025.54
2018-02-25T06:42:53.928Z,1025.54
2018-02-25T06:43:53.940Z,1025.57
2018-02-25T06:44:53.944Z,1025.60
2018-02-25T06:45:53.947Z,1025.62
2018-02-25T06:46:53.953Z,1025.58
2018-02-25T06:47:54.021Z,1025.57
2018-02-25T06:48:53.968Z,1025.56
2018-02-25T06:49:53.992Z,1025.59
2018-02-25T06:50:53.978Z,1025.51
2018-02-25T06:51:53.988Z,1025.54
2018-02-25T06:52:54.005Z,1025.58
2018-02-25T06:53:54.002Z,1025.61
2018-02-25T06:54:54.008Z,1025.60
2018-02-25T06:55:54.014Z,1025.59
2018-02-25T06:56:54.019Z,1025.60
2018-02-25T06:57:54.190Z,1025.61
2018-02-25T06:58:54.294Z,1025.57
2018-02-25T06:59:54.057Z,1025.62
2018-02-25T07:00:54.046Z,1025.59
2018-02-25T07:01:54.060Z,1025.66
2018-02-25T07:02:54.077Z,1025.60
2018-02-25T07:03:54.070Z,1025.61
2018-02-25T07:04:54.070Z,1025.62
2018-02-25T07:05:54.086Z,1025.65
2018-02-25T07:06:54.082Z,1025.63
2018-02-25T07:07:54.094Z,1025.61
2018-02-25T07:08:54.102Z,1025.63
2018-02-25T07:09:54.107Z,1025.67
2018-02-25T07:10:54.110Z,1025.64
2018-02-25T07:11:54.121Z,1025.69
2018-02-25T07:12:54.123Z,1025.71
2018-02-25T07:13:54.128Z,1025.70
2018-02-25T07:14:54.142Z,1025.69
2018-02-25T07:15:54.144Z,1025.74
2018-02-25T07:16:54.151Z,1025.74
2018-02-25T07:17:54.157Z,1025.72
2018-02-25T07:18:54.165Z,1025.76
2018-02-25T07:19:54.169Z,1025.77
2018-02-25T07:20:54.176Z,1025.79
2018-02-25T07:21:54.181Z,1025.79
2018-02-25T07:22:54.189Z,1025.81
2018-02-25T07:23:54.201Z,1025.85
2018-02-25T07:24:54.204Z,1025.83
2018-02-25T07:25:54.216Z,1025.83
2018-02-25T07:26:54.271Z,1025.87
2018-02-25T07:27:54.327Z,1025.92
2018-02-25T07:28:54.350Z,1025.88
2018-02-25T07:29:54.240Z,1025.85
2018-02-25T07:30:54.243Z,1025.81
2018-02-25T07:31:54.249Z,1025.80
2018-02-25T07:32:54.256Z,1025.88
2018-02-25T07:33:54.272Z,1025.82
2018-02-25T07:34:54.269Z,1025.87
2018-02-25T07:35:54.286Z,1025.88
2018-02-25T07:36:54.309Z,1025.85
2018-02-25T07:37:54.288Z,1025.88
2018-02-25T07:38:54.396Z,1025.87
2018-02-25T07:39:54.405Z,1025.87
2018-02-25T07:40:54.314Z,1025.91
2018-02-25T07:41:54.316Z,1025.88
2018-02-25T07:42:54.326Z,1025.91
2018-02-25T07:43:54.330Z,1025.85
2018-02-25T07:44:54.343Z,1025.82
2018-02-25T07:45:54.344Z,1025.81
2018-02-25T07:46:54.351Z,1025.79
2018-02-25T07:47:54.356Z,1025.80
2018-02-25T07:48:54.363Z,1025.81
2018-02-25T07:49:54.382Z,1025.86
2018-02-25T07:50:54.376Z,1025.84
2018-02-25T07:51:54.384Z,1025.86
2018-02-25T07:52:54.391Z,1025.88
2018-02-25T07:53:54.396Z,1025.93
2018-02-25T07:54:54.411Z,1025.93
2018-02-25T07:55:54.415Z,1025.92
2018-02-25T07:56:54.422Z,1025.96
2018-02-25T07:59:55.062Z,1025.99
2018-02-25T08:00:54.442Z,1026.02
2018-02-25T08:01:54.451Z,1025.99
2018-02-25T08:02:54.459Z,1026.03
2018-02-25T08:03:54.465Z,1026.03
2018-02-25T08:04:54.470Z,1026.07
2018-02-25T08:05:54.494Z,1026.04
2018-02-25T08:06:54.486Z,1026.10
2018-02-25T08:07:54.492Z,1026.11
2018-02-25T08:08:54.499Z,1026.03
2018-02-25T08:09:54.508Z,1026.06
2018-02-25T08:10:54.515Z,1026.10
2018-02-25T08:11:54.520Z,1026.08
2018-02-25T08:12:54.528Z,1026.07
2018-02-25T08:13:54.536Z,1026.06
2018-02-25T08:14:54.543Z,1026.03
2018-02-25T08:15:54.546Z,1026.12
2018-02-25T08:16:54.555Z,1026.15
2018-02-25T08:17:54.562Z,1026.18
2018-02-25T08:18:54.568Z,1026.17
2018-02-25T08:19:54.586Z,1026.21
2018-02-25T08:20:54.580Z,1026.20
2018-02-25T08:21:54.592Z,1026.15
2018-02-25T08:22:54.596Z,1026.19
2018-02-25T08:23:54.605Z,1026.21
2018-02-25T08:24:54.615Z,1026.21
2018-02-25T08:25:54.619Z,1026.21
2018-02-25T08:26:54.620Z,1026.20
2018-02-25T08:27:54.635Z,1026.21
2018-02-25T08:28:54.697Z,1026.23
2018-02-25T08:29:54.691Z,1026.23
2018-02-25T08:30:54.690Z,1026.24
2018-02-25T08:31:54.668Z,1026.25
2018-02-25T08:32:54.676Z,1026.27
2018-02-25T08:33:54.682Z,1026.26
2018-02-25T08:34:54.685Z,1026.21
2018-02-25T08:35:54.686Z,1026.26
2018-02-25T08:36:54.690Z,1026.26
2018-02-25T08:37:54.719Z,1026.28
2018-02-25T08:38:54.708Z,1026.33
2018-02-25T08:39:54.709Z,1026.24
2018-02-25T08:40:54.717Z,1026.26
2018-02-25T08:41:54.739Z,1026.27
2018-02-25T08:42:54.733Z,1026.20
2018-02-25T08:43:54.740Z,1026.25
2018-02-25T08:44:54.747Z,1026.27
2018-02-25T08:45:54.753Z,1026.24
2018-02-25T08:46:54.762Z,1026.23
2018-02-25T08:47:54.766Z,1026.18
2018-02-25T08:48:54.773Z,1026.21
2018-02-25T08:49:54.779Z,1026.28
2018-02-25T08:50:54.793Z,1026.25
2018-02-25T08:51:54.800Z,1026.25
2018-02-25T08:52:54.804Z,1026.31
2018-02-25T08:53:54.809Z,1026.26
2018-02-25T08:54:54.816Z,1026.27
2018-02-25T08:56:54.841Z,1026.24
2018-02-25T08:57:54.842Z,1026.32
2018-02-25T08:58:54.856Z,1026.23
2018-02-25T08:59:54.952Z,1026.24
2018-02-25T09:00:54.982Z,1026.26
2018-02-25T09:01:54.890Z,1026.26
2018-02-25T09:02:54.906Z,1026.20
2018-02-25T09:03:54.895Z,1026.20
2018-02-25T09:04:54.889Z,1026.21
2018-02-25T09:05:54.900Z,1026.17
2018-02-25T09:06:54.901Z,1026.19
2018-02-25T09:07:54.914Z,1026.24
2018-02-25T09:08:54.917Z,1026.21
2018-02-25T09:09:55.023Z,1026.14
2018-02-25T09:10:54.932Z,1026.20
2018-02-25T09:11:54.941Z,1026.19
2018-02-25T09:12:54.946Z,1026.16
2018-02-25T09:13:54.953Z,1026.18
2018-02-25T09:14:54.961Z,1026.11
2018-02-25T09:15:54.969Z,1026.11
2018-02-25T09:16:54.978Z,1026.12
2018-02-25T09:17:54.989Z,1026.12
2018-02-25T09:18:54.990Z,1026.14
2018-02-25T09:19:55.004Z,1026.20
2018-02-25T09:20:55.012Z,1026.18
2018-02-25T09:21:55.013Z,1026.17
2018-02-25T09:22:55.026Z,1026.14
2018-02-25T09:23:55.041Z,1026.17
2018-02-25T09:24:55.036Z,1026.18
2018-02-25T09:25:55.056Z,1026.14
2018-02-25T09:26:55.051Z,1026.13
2018-02-25T09:27:55.055Z,1026.08
2018-02-25T09:28:55.064Z,1026.03
2018-02-25T09:29:55.073Z,1026.09
2018-02-25T09:30:55.079Z,1026.06
2018-02-25T09:31:55.086Z,1026.09
2018-02-25T09:32:55.345Z,1026.18
2018-02-25T09:33:55.155Z,1026.08
2018-02-25T09:34:55.454Z,1026.13
2018-02-25T09:35:55.168Z,1026.05
2018-02-25T09:36:55.121Z,1026.05
2018-02-25T09:37:55.146Z,1026.08
2018-02-25T09:38:55.139Z,1026.06
2018-02-25T09:39:55.146Z,1026.04
2018-02-25T09:40:55.155Z,1026.07
2018-02-25T09:41:55.166Z,1026.08
2018-02-25T09:42:55.175Z,1026.07
2018-02-25T09:43:55.177Z,1026.06
2018-02-25T09:44:55.191Z,1026.10
2018-02-25T09:45:55.188Z,1026.09
2018-02-25T09:46:55.201Z,1026.12
2018-02-25T09:47:55.210Z,1026.09
2018-02-25T09:48:55.212Z,1026.08
2018-02-25T09:49:55.242Z,1026.07
2018-02-25T09:50:55.235Z,1026.16
2018-02-25T09:51:55.267Z,1026.10
2018-02-25T09:52:55.257Z,1026.08
2018-02-25T09:53:55.279Z,1026.10
2018-02-25T09:54:55.256Z,1026.09
2018-02-25T09:55:55.289Z,1026.13
2018-02-25T09:56:55.274Z,1026.10
2018-02-25T09:57:55.282Z,1026.13
2018-02-25T09:58:55.286Z,1026.11
2018-02-25T09:59:55.294Z,1026.16
2018-02-25T10:00:55.302Z,1026.16
2018-02-25T10:01:55.307Z,1026.22
2018-02-25T10:02:55.309Z,1026.17
2018-02-25T10:03:55.321Z,1026.11
2018-02-25T10:04:55.325Z,1026.12
2018-02-25T10:05:55.334Z,1026.06
2018-02-25T10:06:55.353Z,1026.04
2018-02-25T10:07:55.463Z,1026.04
2018-02-25T10:08:55.756Z,1026.06
2018-02-25T10:09:55.371Z,1026.03
2018-02-25T10:10:55.390Z,1026.06
2018-02-25T10:11:55.392Z,1026.02
2018-02-25T10:12:55.391Z,1026.00
2018-02-25T10:13:55.416Z,1025.98
2018-02-25T10:14:55.405Z,1025.98
2018-02-25T10:15:55.415Z,1026.03
2018-02-25T10:16:55.417Z,1025.98
2018-02-25T10:17:55.424Z,1026.12
2018-02-25T10:18:55.439Z,1026.09
2018-02-25T10:19:55.443Z,1026.05
2018-02-25T10:20:55.450Z,1026.06
2018-02-25T10:21:55.505Z,1026.05
2018-02-25T10:22:55.463Z,1026.01
2018-02-25T10:23:55.472Z,1026.01
2018-02-25T10:24:55.481Z,1026.07
2018-02-25T10:25:55.486Z,1026.04
2018-02-25T10:26:55.505Z,1026.01
2018-02-25T10:27:55.509Z,1025.95
2018-02-25T10:28:55.509Z,1025.95
2018-02-25T10:29:55.519Z,1025.96
2018-02-25T10:30:55.780Z,1025.87
2018-02-25T10:31:55.556Z,1025.89
2018-02-25T10:32:55.542Z,1025.86
2018-02-25T10:33:55.549Z,1025.87
2018-02-25T10:34:55.559Z,1025.85
2018-02-25T10:35:55.569Z,1025.89
2018-02-25T10:36:55.577Z,1025.84
2018-02-25T10:37:55.585Z,1025.79
2018-02-25T10:38:55.594Z,1025.84
2018-02-25T10:39:55.712Z,1025.71
2018-02-25T10:40:56.132Z,1025.80
2018-02-25T10:41:55.614Z,1025.78
2018-02-25T10:42:55.620Z,1025.75
2018-02-25T10:43:55.631Z,1025.80
2018-02-25T10:44:55.639Z,1025.68
2018-02-25T10:45:55.645Z,1025.72
2018-02-25T10:46:55.657Z,1025.74
2018-02-25T10:47:55.663Z,1025.78
2018-02-25T10:48:55.672Z,1025.77
2018-02-25T10:49:55.676Z,1025.78
2018-02-25T10:50:55.685Z,1025.82
2018-02-25T10:51:55.695Z,1025.75
2018-02-25T10:52:55.707Z,1025.75
2018-02-25T10:53:55.708Z,1025.73
2018-02-25T10:54:55.716Z,1025.76
2018-02-25T10:55:55.727Z,1025.73
2018-02-25T10:56:55.743Z,1025.79
2018-02-25T10:57:55.750Z,1025.78
2018-02-25T10:58:55.749Z,1025.79
2018-02-25T10:59:55.771Z,1025.73
2018-02-25T11:00:55.766Z,1025.68
2018-02-25T11:01:55.773Z,1025.66
2018-02-25T11:02:55.782Z,1025.65
2018-02-25T11:03:55.790Z,1025.63
2018-02-25T11:04:55.800Z,1025.71
2018-02-25T11:05:55.807Z,1025.70
2018-02-25T11:06:55.818Z,1025.68
2018-02-25T11:07:55.823Z,1025.67
2018-02-25T11:08:55.832Z,1025.65
2018-02-25T11:10:56.097Z,1025.59
2018-02-25T11:11:56.060Z,1025.64
2018-02-25T11:12:55.864Z,1025.60
2018-02-25T11:13:55.893Z,1025.52
2018-02-25T11:14:55.923Z,1025.53
2018-02-25T11:15:55.924Z,1025.55
2018-02-25T11:16:55.941Z,1025.54
2018-02-25T11:17:55.910Z,1025.48
2018-02-25T11:18:55.916Z,1025.50
2018-02-25T11:19:55.926Z,1025.53
2018-02-25T11:20:55.936Z,1025.41
2018-02-25T11:21:55.944Z,1025.45
2018-02-25T11:22:56.008Z,1025.41
2018-02-25T11:23:55.959Z,1025.42
2018-02-25T11:24:55.969Z,1025.46
2018-02-25T11:25:55.974Z,1025.47
2018-02-25T11:26:55.983Z,1025.42
2018-02-25T11:27:55.992Z,1025.40
2018-02-25T11:28:55.999Z,1025.45
2018-02-25T11:29:56.007Z,1025.39
2018-02-25T11:30:56.018Z,1025.39
2018-02-25T11:31:56.029Z,1025.38
2018-02-25T11:32:56.035Z,1025.32
2018-02-25T11:33:56.043Z,1025.36
2018-02-25T11:34:56.058Z,1025.30
2018-02-25T11:35:56.059Z,1025.28
2018-02-25T11:36:56.066Z,1025.35
2018-02-25T11:37:56.078Z,1025.28
2018-02-25T11:38:56.131Z,1025.33
2018-02-25T11:39:56.092Z,1025.35
2018-02-25T11:40:56.103Z,1025.32
2018-02-25T11:42:56.384Z,1025.23
2018-02-25T11:43:56.473Z,1025.29
2018-02-25T11:44:56.135Z,1025.18
2018-02-25T11:45:56.155Z,1025.19
2018-02-25T11:46:56.161Z,1025.14
2018-02-25T11:47:56.171Z,1025.22
2018-02-25T11:48:56.168Z,1025.19
2018-02-25T11:49:56.177Z,1025.22
2018-02-25T11:50:56.190Z,1025.18
2018-02-25T11:51:56.199Z,1025.17
2018-02-25T11:52:56.206Z,1025.18
2018-02-25T11:53:56.216Z,1025.14
2018-02-25T11:54:56.221Z,1025.19
2018-02-25T11:55:56.231Z,1025.15
2018-02-25T11:56:56.253Z,1025.21
2018-02-25T11:57:56.250Z,1025.22
2018-02-25T11:58:56.263Z,1025.14
2018-02-25T11:59:56.270Z,1025.17
2018-02-25T12:00:56.275Z,1025.10
2018-02-25T12:01:56.294Z,1025.05
2018-02-25T12:02:56.294Z,1025.08
2018-02-25T12:03:56.322Z,1025.09
2018-02-25T12:04:56.503Z,1025.05
2018-02-25T12:05:56.368Z,1025.05
2018-02-25T12:06:56.526Z,1024.98
2018-02-25T12:07:56.346Z,1024.98
2018-02-25T12:08:56.350Z,1025.00
2018-02-25T12:09:56.354Z,1024.97
2018-02-25T12:10:56.368Z,1024.99
2018-02-25T12:11:56.377Z,1024.97
2018-02-25T12:12:56.393Z,1024.94
2018-02-25T12:13:56.390Z,1024.85
2018-02-25T12:14:59.551Z,1024.95
2018-02-25T12:15:56.409Z,1024.86